createdAt,value
2022-11-14T00:01:29.585Z,5.40
2022-11-14T00:03:57.474Z,5.50
2022-11-14T00:06:25.407Z,5.50
2022-11-14T00:08:53.337Z,5.70
2022-11-14T00:11:26.303Z,5.60
2022-11-14T00:13:55.361Z,5.70
2022-11-14T00:16:23.265Z,5.80
2022-11-14T00:18:51.291Z,5.80
2022-11-14T00:21:19.199Z,5.60
2022-11-14T00:23:47.116Z,5.60
2022-11-14T00:26:15.039Z,5.80
2022-11-14T00:28:44.395Z,5.70
2022-11-14T00:31:12.431Z,5.50
2022-11-14T00:33:40.426Z,5.60
2022-11-14T00:36:08.530Z,5.60
2022-11-14T00:38:36.461Z,5.50
2022-11-14T00:41:04.550Z,5.40
2022-11-14T00:43:32.504Z,5.40
2022-11-14T00:46:01.836Z,5.40
2022-11-14T00:48:30.056Z,5.40
2022-11-14T00:50:58.209Z,5.20
2022-11-14T00:53:26.164Z,5.10
2022-11-14T00:55:54.296Z,5.00
2022-11-14T00:58:22.213Z,4.90
2022-11-14T01:00:50.215Z,4.80
2022-11-14T01:03:19.751Z,4.70
2022-11-14T01:05:50.211Z,4.60
2022-11-14T01:08:19.720Z,4.50
2022-11-14T01:10:52.403Z,4.40
2022-11-14T01:13:20.902Z,4.30
2022-11-14T01:15:52.177Z,4.20
2022-11-14T01:18:25.223Z,4.20
2022-11-14T01:20:53.438Z,4.10
2022-11-14T01:23:21.373Z,4.10
2022-11-14T01:25:49.336Z,4.00
2022-11-14T01:28:20.522Z,4.00
2022-11-14T01:30:48.530Z,4.10
2022-11-14T01:33:16.469Z,4.10
2022-11-14T01:35:45.694Z,4.10
2022-11-14T01:38:15.223Z,4.10
2022-11-14T01:40:44.128Z,4.30
2022-11-14T01:43:30.221Z,4.20
2022-11-14T01:46:01.236Z,4.10
2022-11-14T01:48:34.309Z,4.20
2022-11-14T01:51:09.243Z,4.20
2022-11-14T01:53:38.296Z,4.20
2022-11-14T01:56:09.247Z,4.20
2022-11-14T01:58:39.015Z,4.20
2022-11-14T02:01:07.578Z,4.10
2022-11-14T02:03:38.927Z,4.10
2022-11-14T02:06:10.451Z,4.10
2022-11-14T02:08:38.839Z,4.10
2022-11-14T02:11:06.826Z,4.10
2022-11-14T02:13:34.809Z,4.10
2022-11-14T02:16:02.743Z,4.10
2022-11-14T02:18:31.046Z,4.20
2022-11-14T02:21:00.544Z,4.10
2022-11-14T02:23:29.722Z,4.10
2022-11-14T02:25:57.820Z,4.00
2022-11-14T02:28:25.889Z,4.10
2022-11-14T02:30:53.844Z,4.10
2022-11-14T02:33:21.790Z,4.00
2022-11-14T02:35:52.406Z,4.00
2022-11-14T02:38:21.661Z,3.90
2022-11-14T02:40:49.550Z,4.10
2022-11-14T02:43:17.423Z,4.20
2022-11-14T02:45:48.011Z,4.30
2022-11-14T02:48:16.039Z,4.30
2022-11-14T02:50:45.002Z,4.30
2022-11-14T02:53:12.927Z,4.30
2022-11-14T02:55:42.210Z,4.20
2022-11-14T02:58:10.185Z,4.20
2022-11-14T03:00:53.348Z,4.20
2022-11-14T03:03:26.080Z,4.10
2022-11-14T03:05:54.306Z,4.20
2022-11-14T03:08:22.245Z,4.10
2022-11-14T03:10:51.552Z,4.20
2022-11-14T03:13:19.554Z,4.10
2022-11-14T03:15:47.718Z,4.10
2022-11-14T03:18:15.729Z,3.90
2022-11-14T03:20:54.874Z,3.90
2022-11-14T03:23:22.769Z,4.10
2022-11-14T03:25:51.991Z,4.10
2022-11-14T03:28:19.904Z,3.90
2022-11-14T03:30:47.823Z,4.00
2022-11-14T03:33:15.714Z,4.00
2022-11-14T03:35:43.890Z,4.00
2022-11-14T03:38:11.805Z,3.90
2022-11-14T03:40:41.504Z,4.00
2022-11-14T03:43:11.062Z,4.00
2022-11-14T03:45:39.382Z,4.00
2022-11-14T03:48:07.691Z,3.90
2022-11-14T03:50:38.381Z,3.90
2022-11-14T03:53:06.735Z,3.90
2022-11-14T03:55:35.175Z,3.80
2022-11-14T03:58:02.998Z,3.80
2022-11-14T04:00:32.307Z,3.80
2022-11-14T04:03:00.263Z,3.80
2022-11-14T04:05:28.214Z,3.80
2022-11-14T04:07:56.200Z,3.80
2022-11-14T04:10:24.182Z,3.80
2022-11-14T04:12:54.278Z,3.80
2022-11-14T04:15:22.236Z,3.80
2022-11-14T04:17:52.298Z,3.80
2022-11-14T04:20:20.377Z,3.90
2022-11-14T04:22:48.333Z,3.90
2022-11-14T04:25:16.326Z,3.80
2022-11-14T04:27:44.615Z,3.90
2022-11-14T04:30:13.235Z,3.90
2022-11-14T04:32:41.183Z,3.90
2022-11-14T04:35:11.170Z,3.70
2022-11-14T04:37:39.494Z,3.60
2022-11-14T04:40:09.075Z,3.70
2022-11-14T04:42:36.985Z,3.80
2022-11-14T04:45:07.187Z,3.80
2022-11-14T04:47:35.144Z,3.70
2022-11-14T04:50:03.222Z,3.70
2022-11-14T04:52:32.453Z,3.60
2022-11-14T04:55:00.351Z,3.70
2022-11-14T04:57:28.620Z,3.60
2022-11-14T04:59:56.522Z,3.80
2022-11-14T05:02:24.474Z,3.80
2022-11-14T05:04:52.466Z,3.70
2022-11-14T05:07:20.435Z,3.70
2022-11-14T05:09:49.764Z,3.70
2022-11-14T05:12:17.756Z,3.90
2022-11-14T05:14:45.714Z,3.90
2022-11-14T05:17:13.645Z,3.80
2022-11-14T05:19:41.581Z,3.90
2022-11-14T05:22:09.547Z,3.90
2022-11-14T05:24:37.495Z,3.90
2022-11-14T05:27:06.920Z,3.90
2022-11-14T05:29:35.190Z,4.10
2022-11-14T05:32:03.135Z,4.20
2022-11-14T05:34:31.110Z,4.20
2022-11-14T05:36:59.137Z,4.10
2022-11-14T05:39:27.051Z,4.10
2022-11-14T05:41:54.945Z,4.10
2022-11-14T05:44:24.551Z,4.10
2022-11-14T05:46:52.457Z,4.20
2022-11-14T05:49:22.150Z,4.20
2022-11-14T05:51:52.509Z,4.30
2022-11-14T05:54:20.491Z,4.30
2022-11-14T05:56:48.474Z,4.40
2022-11-14T05:59:19.280Z,4.50
2022-11-14T06:01:48.702Z,4.60
2022-11-14T06:04:16.684Z,4.60
2022-11-14T06:06:44.706Z,4.60
2022-11-14T06:09:12.933Z,4.60
2022-11-14T06:11:45.341Z,4.60
2022-11-14T06:14:13.501Z,4.60
2022-11-14T06:16:41.377Z,4.70
2022-11-14T06:19:10.741Z,4.70
2022-11-14T06:21:38.755Z,4.70
2022-11-14T06:24:07.384Z,4.80
2022-11-14T06:26:35.311Z,4.90
2022-11-14T06:29:03.301Z,4.90
2022-11-14T06:31:31.280Z,5.00
2022-11-14T06:33:59.503Z,5.00
2022-11-14T06:36:30.446Z,4.90
2022-11-14T06:38:58.496Z,4.90
2022-11-14T06:41:33.140Z,5.00
2022-11-14T06:44:01.099Z,5.00
2022-11-14T06:46:29.089Z,5.00
2022-11-14T06:48:57.024Z,5.00
2022-11-14T06:51:25.088Z,5.00
2022-11-14T06:53:54.358Z,5.00
2022-11-14T06:56:22.338Z,5.00
2022-11-14T06:58:51.385Z,5.00
2022-11-14T07:01:21.209Z,5.00
2022-11-14T07:03:49.650Z,5.10
2022-11-14T07:06:21.432Z,5.10
2022-11-14T07:08:52.532Z,5.10
2022-11-14T07:11:23.736Z,5.10
2022-11-14T07:13:56.114Z,5.20
2022-11-14T07:16:26.494Z,5.20
2022-11-14T07:18:54.401Z,5.20
2022-11-14T07:21:22.405Z,5.20
2022-11-14T07:23:51.116Z,5.30
2022-11-14T07:26:19.211Z,5.30
2022-11-14T07:28:52.410Z,5.40
2022-11-14T07:31:22.914Z,5.40
2022-11-14T07:33:50.949Z,5.40
2022-11-14T07:36:19.313Z,5.40
2022-11-14T07:38:47.362Z,5.40
2022-11-14T07:41:17.216Z,5.30
2022-11-14T07:43:45.293Z,5.30
2022-11-14T07:46:16.812Z,5.40
2022-11-14T07:48:45.203Z,5.40
2022-11-14T07:51:17.099Z,5.40
2022-11-14T07:53:45.411Z,5.50
2022-11-14T07:56:13.433Z,5.50
2022-11-14T07:58:43.522Z,5.50
2022-11-14T08:01:14.542Z,5.50
2022-11-14T08:03:45.929Z,5.50
2022-11-14T08:06:15.593Z,5.50
2022-11-14T08:08:43.741Z,5.60
2022-11-14T08:11:12.346Z,5.50
2022-11-14T08:13:40.513Z,5.50
2022-11-14T08:16:13.725Z,5.60
2022-11-14T08:18:43.590Z,5.70
2022-11-14T08:21:11.532Z,5.80
2022-11-14T08:23:39.733Z,5.80
2022-11-14T08:26:07.802Z,5.80
2022-11-14T08:28:35.719Z,5.70
2022-11-14T08:31:05.049Z,5.70
2022-11-14T08:33:33.184Z,5.90
2022-11-14T08:36:03.979Z,5.90
2022-11-14T08:38:33.469Z,5.90
2022-11-14T08:41:02.174Z,5.90
2022-11-14T08:43:31.168Z,5.90
2022-11-14T08:46:01.892Z,5.90
2022-11-14T08:48:31.414Z,5.90
2022-11-14T08:51:02.991Z,5.80
2022-11-14T08:53:32.481Z,5.90
2022-11-14T08:56:00.545Z,5.80
2022-11-14T08:58:31.394Z,5.90
2022-11-14T09:01:05.732Z,5.90
2022-11-14T09:03:34.296Z,5.90
2022-11-14T09:06:03.141Z,6.00
2022-11-14T09:08:33.250Z,6.10
2022-11-14T09:11:05.178Z,6.00
2022-11-14T09:13:34.167Z,6.10
2022-11-14T09:16:02.211Z,6.00
2022-11-14T09:18:31.407Z,6.00
2022-11-14T09:21:04.687Z,6.00
2022-11-14T09:23:34.731Z,6.00
2022-11-14T09:26:05.324Z,6.00
2022-11-14T09:28:37.644Z,6.10
2022-11-14T09:31:07.932Z,6.20
2022-11-14T09:33:36.106Z,6.20
2022-11-14T09:36:06.036Z,6.30
2022-11-14T09:38:38.945Z,6.50
2022-11-14T09:41:24.596Z,6.60
2022-11-14T09:44:20.090Z,6.60
2022-11-14T09:46:57.079Z,6.60
2022-11-14T09:49:31.375Z,6.70
2022-11-14T09:52:06.917Z,6.70
2022-11-14T09:54:45.451Z,6.90
2022-11-14T09:57:17.850Z,6.80
2022-11-14T09:59:45.858Z,6.70
2022-11-14T10:02:41.381Z,6.90
2022-11-14T10:05:23.997Z,7.00
2022-11-14T10:08:09.561Z,7.00
2022-11-14T10:10:52.203Z,7.10
2022-11-14T10:13:36.755Z,6.90
2022-11-14T10:16:11.963Z,6.80
2022-11-14T10:18:55.251Z,6.90
2022-11-14T10:21:40.946Z,7.10
2022-11-14T10:24:24.035Z,7.00
2022-11-14T10:27:02.037Z,6.90
2022-11-14T10:29:47.159Z,7.10
2022-11-14T10:32:40.926Z,7.30
2022-11-14T10:35:15.752Z,7.10
2022-11-14T10:37:54.311Z,7.20
2022-11-14T10:40:27.539Z,7.70
2022-11-14T10:43:03.458Z,7.60
2022-11-14T10:45:36.769Z,7.50
2022-11-14T10:48:10.503Z,7.40
2022-11-14T10:50:45.929Z,7.60
2022-11-14T10:53:22.569Z,7.60
2022-11-14T10:56:07.679Z,7.60
2022-11-14T10:58:47.982Z,7.60
2022-11-14T11:01:42.361Z,7.90
2022-11-14T11:04:16.078Z,8.30
2022-11-14T11:06:44.155Z,8.50
2022-11-14T11:09:34.200Z,8.40
2022-11-14T11:12:03.490Z,8.30
2022-11-14T11:14:34.299Z,8.10
2022-11-14T11:17:29.518Z,8.10
2022-11-14T11:20:26.456Z,8.50
2022-11-14T11:23:04.253Z,8.50
2022-11-14T11:25:34.036Z,8.50
2022-11-14T11:28:07.703Z,8.60
2022-11-14T11:30:36.952Z,8.50
2022-11-14T11:33:18.458Z,8.60
2022-11-14T11:35:49.303Z,8.80
2022-11-14T11:38:18.518Z,8.90
2022-11-14T11:40:49.872Z,8.90
2022-11-14T11:43:44.141Z,9.00
2022-11-14T11:46:23.826Z,8.90
2022-11-14T11:49:00.859Z,9.10
2022-11-14T11:51:31.349Z,9.20
2022-11-14T11:54:05.053Z,9.20
2022-11-14T11:56:33.601Z,9.10
2022-11-14T11:59:14.084Z,9.20
2022-11-14T12:01:43.432Z,9.50
2022-11-14T12:04:11.435Z,9.30
2022-11-14T12:06:49.488Z,9.20
2022-11-14T12:09:22.844Z,9.10
2022-11-14T12:11:56.142Z,9.30
2022-11-14T12:14:47.410Z,9.50
2022-11-14T12:17:43.367Z,9.60
2022-11-14T12:20:29.313Z,9.80
2022-11-14T12:23:35.979Z,9.80
2022-11-14T12:26:14.878Z,9.90
2022-11-14T12:28:59.598Z,9.90
2022-11-14T12:31:30.028Z,9.90
2022-11-14T12:34:01.976Z,9.90
2022-11-14T12:36:35.754Z,9.80
2022-11-14T12:39:05.858Z,9.80
2022-11-14T12:41:35.858Z,9.80
2022-11-14T12:44:33.354Z,9.70
2022-11-14T12:47:17.670Z,9.60
2022-11-14T12:50:21.155Z,9.50
2022-11-14T12:52:52.838Z,9.40
2022-11-14T12:55:59.314Z,9.40
2022-11-14T12:59:05.923Z,9.30
2022-11-14T13:01:51.511Z,9.30
2022-11-14T13:04:44.002Z,9.20
2022-11-14T13:07:34.565Z,9.20
2022-11-14T13:10:14.142Z,9.20
2022-11-14T13:13:00.806Z,9.10
2022-11-14T13:15:50.875Z,9.10
2022-11-14T13:18:40.989Z,9.00
2022-11-14T13:21:42.253Z,9.00
2022-11-14T13:24:16.224Z,9.10
2022-11-14T13:26:46.852Z,9.10
2022-11-14T13:29:57.794Z,9.00
2022-11-14T13:33:03.030Z,9.00
2022-11-14T13:36:05.069Z,8.90
2022-11-14T13:39:12.244Z,9.00
2022-11-14T13:42:17.647Z,9.00
2022-11-14T13:45:13.150Z,9.00
2022-11-14T13:48:28.878Z,8.90
2022-11-14T13:51:21.532Z,8.90
2022-11-14T13:53:49.709Z,8.90
2022-11-14T13:56:32.274Z,8.90
2022-11-14T13:59:34.379Z,8.90
2022-11-14T14:02:28.367Z,8.90
2022-11-14T14:05:05.074Z,8.90
2022-11-14T14:07:47.485Z,8.80
2022-11-14T14:10:27.144Z,8.90
2022-11-14T14:13:10.747Z,8.80
2022-11-14T14:15:47.878Z,8.80
2022-11-14T14:18:26.133Z,8.90
2022-11-14T14:21:04.311Z,9.00
2022-11-14T14:23:43.878Z,9.10
2022-11-14T14:26:23.110Z,9.10
2022-11-14T14:29:03.594Z,9.00
2022-11-14T14:31:38.067Z,9.00
2022-11-14T14:34:22.790Z,9.00
2022-11-14T14:36:52.241Z,9.00
2022-11-14T14:39:22.002Z,9.00
2022-11-14T14:41:51.161Z,9.00
2022-11-14T14:44:24.321Z,9.00
2022-11-14T14:46:54.990Z,9.00
2022-11-14T14:49:25.705Z,9.00
2022-11-14T14:51:58.250Z,9.00
2022-11-14T14:54:29.425Z,8.90
2022-11-14T14:57:00.897Z,9.00
2022-11-14T14:59:31.443Z,9.00
2022-11-14T15:02:01.487Z,8.90
2022-11-14T15:04:31.284Z,8.90
2022-11-14T15:06:59.462Z,8.90
2022-11-14T15:09:30.581Z,8.90
2022-11-14T15:12:01.302Z,8.90
2022-11-14T15:14:31.624Z,8.90
2022-11-14T15:17:01.761Z,8.90
2022-11-14T15:19:42.728Z,8.80
2022-11-14T15:22:24.895Z,8.90
2022-11-14T15:25:20.273Z,8.90
2022-11-14T15:27:51.102Z,8.90
2022-11-14T15:30:25.625Z,8.90
2022-11-14T15:32:57.080Z,8.90
2022-11-14T15:35:35.675Z,8.90
2022-11-14T15:38:36.835Z,8.90
2022-11-14T15:41:21.045Z,9.00
2022-11-14T15:43:51.335Z,8.90
2022-11-14T15:46:44.171Z,9.00
2022-11-14T15:49:22.406Z,9.00
2022-11-14T15:51:53.358Z,9.10
2022-11-14T15:54:30.122Z,9.10
2022-11-14T15:57:00.448Z,9.00
2022-11-14T15:59:31.645Z,9.10
2022-11-14T16:02:04.607Z,9.00
2022-11-14T16:04:35.772Z,9.00
2022-11-14T16:07:03.729Z,9.00
2022-11-14T16:09:31.701Z,9.00
2022-11-14T16:11:59.747Z,9.00
2022-11-14T16:14:27.696Z,9.00
2022-11-14T16:16:55.596Z,9.00
2022-11-14T16:19:24.042Z,9.00
2022-11-14T16:21:54.222Z,9.00
2022-11-14T16:24:24.330Z,8.90
2022-11-14T16:26:52.277Z,8.90
2022-11-14T16:29:20.332Z,8.80
2022-11-14T16:31:48.572Z,8.90
2022-11-14T16:34:19.838Z,8.80
2022-11-14T16:36:48.725Z,8.80
2022-11-14T16:39:18.247Z,8.80
2022-11-14T16:41:46.165Z,8.80
2022-11-14T16:44:16.973Z,8.80
2022-11-14T16:46:45.348Z,8.80
2022-11-14T16:49:15.482Z,8.80
2022-11-14T16:51:48.903Z,8.90
2022-11-14T16:54:21.245Z,8.90
2022-11-14T16:56:49.527Z,8.90
2022-11-14T16:59:19.472Z,8.90
2022-11-14T17:01:48.791Z,8.90
2022-11-14T17:04:16.925Z,8.90
2022-11-14T17:06:45.094Z,8.90
2022-11-14T17:09:14.467Z,8.90
2022-11-14T17:11:44.634Z,8.90
2022-11-14T17:14:13.068Z,8.90
2022-11-14T17:16:40.999Z,8.90
2022-11-14T17:19:09.074Z,8.90
2022-11-14T17:21:36.968Z,8.90
2022-11-14T17:24:06.318Z,8.90
2022-11-14T17:26:34.359Z,8.90
2022-11-14T17:29:03.706Z,8.90
2022-11-14T17:31:37.417Z,8.90
2022-11-14T17:34:06.457Z,8.90
2022-11-14T17:36:37.757Z,8.90
2022-11-14T17:39:05.857Z,8.90
2022-11-14T17:41:35.204Z,8.90
2022-11-14T17:44:04.739Z,9.00
2022-11-14T17:46:34.811Z,9.00
2022-11-14T17:49:02.938Z,8.90
2022-11-14T17:51:31.204Z,9.00
2022-11-14T17:53:59.122Z,9.00
2022-11-14T17:56:27.954Z,9.00
2022-11-14T17:58:55.922Z,9.00
2022-11-14T18:01:26.307Z,9.00
2022-11-14T18:03:54.260Z,9.00
2022-11-14T18:06:22.506Z,9.00
2022-11-14T18:08:51.106Z,9.00
2022-11-14T18:11:20.664Z,9.00
2022-11-14T18:13:49.046Z,9.00
2022-11-14T18:16:19.193Z,8.90
2022-11-14T18:18:48.719Z,8.90
2022-11-14T18:21:19.469Z,8.90
2022-11-14T18:23:51.405Z,8.90
2022-11-14T18:26:23.103Z,8.90
2022-11-14T18:28:55.883Z,9.00
2022-11-14T18:31:24.621Z,9.00
2022-11-14T18:33:54.120Z,8.90
2022-11-14T18:36:25.365Z,9.00
2022-11-14T18:38:53.500Z,9.00
2022-11-14T18:41:22.763Z,8.90
2022-11-14T18:43:54.777Z,8.90
2022-11-14T18:46:24.709Z,8.80
2022-11-14T18:48:57.036Z,8.90
2022-11-14T18:52:12.725Z,8.80
2022-11-14T18:55:00.242Z,8.80
2022-11-14T18:57:28.261Z,8.90
2022-11-14T18:59:56.259Z,8.80
2022-11-14T19:02:24.986Z,8.80
2022-11-14T19:04:56.001Z,8.80
2022-11-14T19:07:25.383Z,8.70
2022-11-14T19:09:53.647Z,8.70
2022-11-14T19:12:23.495Z,8.70
2022-11-14T19:14:52.902Z,8.70
2022-11-14T19:17:22.455Z,8.60
2022-11-14T19:19:53.367Z,8.60
2022-11-14T19:22:25.190Z,8.70
2022-11-14T19:24:57.698Z,8.60
2022-11-14T19:27:27.619Z,8.60
2022-11-14T19:29:55.698Z,8.50
2022-11-14T19:32:24.012Z,8.40
2022-11-14T19:34:51.963Z,8.40
2022-11-14T19:37:19.859Z,8.40
2022-11-14T19:39:55.270Z,8.40
2022-11-14T19:42:24.439Z,8.30
2022-11-14T19:45:01.071Z,8.30
2022-11-14T19:47:29.878Z,8.30
2022-11-14T19:50:02.878Z,8.30
2022-11-14T19:52:30.862Z,8.20
2022-11-14T19:55:00.399Z,8.20
2022-11-14T19:57:31.663Z,8.10
2022-11-14T19:59:59.697Z,8.00
2022-11-14T20:02:29.653Z,7.90
2022-11-14T20:04:57.731Z,7.90
2022-11-14T20:07:25.995Z,7.80
2022-11-14T20:09:54.126Z,7.70
2022-11-14T20:12:23.574Z,7.70
2022-11-14T20:14:51.750Z,7.70
2022-11-14T20:17:19.893Z,7.70
2022-11-14T20:19:50.759Z,7.70
2022-11-14T20:22:19.121Z,7.80
2022-11-14T20:24:47.275Z,7.80
2022-11-14T20:27:15.795Z,7.70
2022-11-14T20:29:45.408Z,7.70
2022-11-14T20:32:15.919Z,7.60
2022-11-14T20:34:44.217Z,7.60
2022-11-14T20:37:12.456Z,7.60
2022-11-14T20:39:40.688Z,7.60
2022-11-14T20:42:09.486Z,7.70
2022-11-14T20:46:11.742Z,7.80
2022-11-14T20:48:11.990Z,7.80
2022-11-14T20:50:40.025Z,7.80
2022-11-14T20:53:08.105Z,7.70
2022-11-14T20:55:36.104Z,7.70
2022-11-14T20:58:04.140Z,7.60
2022-11-14T21:00:33.523Z,7.60
2022-11-14T21:03:01.570Z,7.70
2022-11-14T21:05:29.769Z,7.60
2022-11-14T21:07:57.872Z,7.60
2022-11-14T21:10:43.293Z,7.50
2022-11-14T21:13:29.122Z,7.60
2022-11-14T21:15:59.298Z,7.60
2022-11-14T21:18:27.803Z,7.60
2022-11-14T21:21:00.398Z,7.50
2022-11-14T21:23:28.371Z,7.50
2022-11-14T21:26:03.164Z,7.60
2022-11-14T21:28:35.328Z,7.60
2022-11-14T21:31:14.869Z,7.60
2022-11-14T21:33:43.243Z,7.70
2022-11-14T21:36:37.962Z,7.80
2022-11-14T21:39:00.886Z,7.90
2022-11-14T21:41:30.383Z,7.90
2022-11-14T21:44:02.504Z,7.90
2022-11-14T21:46:31.977Z,7.90
2022-11-14T21:48:59.781Z,7.90
2022-11-14T21:51:29.219Z,7.90
2022-11-14T21:53:59.866Z,7.90
2022-11-14T21:56:29.411Z,7.90
2022-11-14T21:59:11.538Z,7.90
2022-11-14T22:01:59.097Z,7.90
2022-11-14T22:04:27.335Z,7.90
2022-11-14T22:06:56.150Z,7.90
2022-11-14T22:09:25.213Z,8.00
2022-11-14T22:11:53.144Z,8.00
2022-11-14T22:14:21.117Z,8.00
2022-11-14T22:16:50.578Z,8.00
2022-11-14T22:19:18.741Z,8.00
2022-11-14T22:21:46.787Z,8.00
2022-11-14T22:24:14.704Z,8.00
2022-11-14T22:26:42.643Z,7.90
2022-11-14T22:29:10.860Z,7.90
2022-11-14T22:31:42.497Z,7.90
2022-11-14T22:34:12.710Z,7.90
2022-11-14T22:36:40.738Z,7.90
2022-11-14T22:39:09.245Z,7.90
2022-11-14T22:41:37.896Z,7.90
2022-11-14T22:44:06.146Z,7.90
2022-11-14T22:46:34.116Z,7.90
2022-11-14T22:49:07.100Z,8.00
2022-11-14T22:51:36.362Z,7.90
2022-11-14T22:54:04.279Z,7.90
2022-11-14T22:56:32.152Z,7.80
2022-11-14T22:59:03.717Z,7.80
2022-11-14T23:01:32.994Z,7.80
2022-11-14T23:04:02.440Z,7.70
2022-11-14T23:06:31.853Z,7.60
2022-11-14T23:09:01.983Z,7.50
2022-11-14T23:11:31.845Z,7.40
2022-11-14T23:14:02.793Z,7.30
2022-11-14T23:16:32.249Z,7.30
2022-11-14T23:19:02.658Z,7.20
2022-11-14T23:21:32.423Z,7.10
2022-11-14T23:24:03.399Z,7.10
2022-11-14T23:26:36.094Z,7.00
2022-11-14T23:29:04.378Z,7.00
2022-11-14T23:31:32.404Z,7.10
2022-11-14T23:34:00.367Z,7.10
2022-11-14T23:36:28.277Z,7.10
2022-11-14T23:38:56.220Z,7.10
2022-11-14T23:41:26.666Z,7.10
2022-11-14T23:43:56.241Z,7.10
2022-11-14T23:46:24.208Z,7.20
2022-11-14T23:48:53.268Z,7.30
2022-11-14T23:51:23.884Z,7.20
2022-11-14T23:53:51.959Z,7.20
2022-11-14T23:56:19.854Z,7.20
2022-11-14T23:58:52.007Z,7.20
